sensor_id;sensor_type;location;lat;lon;timestamp;P1;durP1;ratioP1;P2;durP2;ratioP2
35074;SDS011;21260;34.984;32.490;2023-02-15T00:02:17;13.83;;;6.67;;
35074;SDS011;21260;34.984;32.490;2023-02-15T00:04:44;13.20;;;6.40;;
35074;SDS011;21260;34.984;32.490;2023-02-15T00:07:14;11.60;;;6.17;;
35074;SDS011;21260;34.984;32.490;2023-02-15T00:09:43;10.10;;;6.03;;
35074;SDS011;21260;34.984;32.490;2023-02-15T00:12:11;12.93;;;6.23;;
35074;SDS011;21260;34.984;32.490;2023-02-15T00:14:38;18.80;;;6.40;;
35074;SDS011;21260;34.984;32.490;2023-02-15T00:17:05;11.63;;;6.53;;
35074;SDS011;21260;34.984;32.490;2023-02-15T00:19:31;13.90;;;6.07;;
35074;SDS011;21260;34.984;32.490;2023-02-15T00:21:57;12.97;;;5.37;;
35074;SDS011;21260;34.984;32.490;2023-02-15T00:24:24;6.77;;;4.73;;
35074;SDS011;21260;34.984;32.490;2023-02-15T00:26:50;8.87;;;5.23;;
35074;SDS011;21260;34.984;32.490;2023-02-15T00:29:18;12.50;;;5.50;;
35074;SDS011;21260;34.984;32.490;2023-02-15T00:31:45;12.57;;;6.70;;
35074;SDS011;21260;34.984;32.490;2023-02-15T00:34:13;23.03;;;8.10;;
35074;SDS011;21260;34.984;32.490;2023-02-15T00:36:51;15.93;;;7.67;;
35074;SDS011;21260;34.984;32.490;2023-02-15T00:39:18;13.63;;;7.40;;
35074;SDS011;21260;34.984;32.490;2023-02-15T00:41:46;13.80;;;7.10;;
35074;SDS011;21260;34.984;32.490;2023-02-15T00:44:12;12.97;;;6.43;;
35074;SDS011;21260;34.984;32.490;2023-02-15T00:46:40;13.00;;;6.60;;
35074;SDS011;21260;34.984;32.490;2023-02-15T00:49:06;11.97;;;6.17;;
35074;SDS011;21260;34.984;32.490;2023-02-15T00:51:33;11.33;;;6.30;;
35074;SDS011;21260;34.984;32.490;2023-02-15T00:56:52;13.57;;;6.63;;
35074;SDS011;21260;34.984;32.490;2023-02-15T00:59:18;12.83;;;6.53;;
35074;SDS011;21260;34.984;32.490;2023-02-15T01:01:44;15.23;;;6.53;;
35074;SDS011;21260;34.984;32.490;2023-02-15T01:04:10;13.67;;;6.53;;
35074;SDS011;21260;34.984;32.490;2023-02-15T01:06:36;20.10;;;7.60;;
35074;SDS011;21260;34.984;32.490;2023-02-15T01:09:02;14.90;;;7.17;;
35074;SDS011;21260;34.984;32.490;2023-02-15T01:11:28;16.23;;;7.33;;
35074;SDS011;21260;34.984;32.490;2023-02-15T01:13:56;19.60;;;8.00;;
35074;SDS011;21260;34.984;32.490;2023-02-15T01:16:24;17.10;;;8.50;;
35074;SDS011;21260;34.984;32.490;2023-02-15T01:18:52;23.40;;;9.27;;
35074;SDS011;21260;34.984;32.490;2023-02-15T01:21:22;18.30;;;8.20;;
35074;SDS011;21260;34.984;32.490;2023-02-15T01:23:50;15.53;;;7.57;;
35074;SDS011;21260;34.984;32.490;2023-02-15T01:26:17;18.77;;;8.23;;
35074;SDS011;21260;34.984;32.490;2023-02-15T01:28:43;18.00;;;7.53;;
35074;SDS011;21260;34.984;32.490;2023-02-15T01:31:11;14.00;;;7.20;;
35074;SDS011;21260;34.984;32.490;2023-02-15T01:33:41;18.07;;;8.80;;
35074;SDS011;21260;34.984;32.490;2023-02-15T01:36:07;22.07;;;10.40;;
35074;SDS011;21260;34.984;32.490;2023-02-15T01:38:34;35.57;;;13.73;;
35074;SDS011;21260;34.984;32.490;2023-02-15T01:41:00;38.30;;;13.33;;
35074;SDS011;21260;34.984;32.490;2023-02-15T01:43:48;26.17;;;10.30;;
35074;SDS011;21260;34.984;32.490;2023-02-15T01:46:26;29.70;;;10.93;;
35074;SDS011;21260;34.984;32.490;2023-02-15T01:49:17;31.13;;;11.37;;
35074;SDS011;21260;34.984;32.490;2023-02-15T01:51:48;29.53;;;10.27;;
35074;SDS011;21260;34.984;32.490;2023-02-15T01:54:25;39.38;;;14.60;;
35074;SDS011;21260;34.984;32.490;2023-02-15T01:56:59;52.93;;;16.87;;
35074;SDS011;21260;34.984;32.490;2023-02-15T01:59:34;27.53;;;11.73;;
35074;SDS011;21260;34.984;32.490;2023-02-15T02:02:05;25.77;;;10.37;;
35074;SDS011;21260;34.984;32.490;2023-02-15T02:04:49;9.07;;;6.23;;
35074;SDS011;21260;34.984;32.490;2023-02-15T02:07:21;10.33;;;5.37;;
35074;SDS011;21260;34.984;32.490;2023-02-15T02:09:54;7.97;;;5.17;;
35074;SDS011;21260;34.984;32.490;2023-02-15T02:12:21;8.60;;;5.87;;
35074;SDS011;21260;34.984;32.490;2023-02-15T02:14:50;14.53;;;9.00;;
35074;SDS011;21260;34.984;32.490;2023-02-15T02:17:23;17.57;;;10.17;;
35074;SDS011;21260;34.984;32.490;2023-02-15T02:20:15;16.57;;;10.80;;
35074;SDS011;21260;34.984;32.490;2023-02-15T02:23:07;21.13;;;12.27;;
35074;SDS011;21260;34.984;32.490;2023-02-15T02:35:19;20.40;;;9.77;;
35074;SDS011;21260;34.984;32.490;2023-02-15T02:37:57;14.93;;;8.33;;
35074;SDS011;21260;34.984;32.490;2023-02-15T02:41:13;10.43;;;6.53;;
35074;SDS011;21260;34.984;32.490;2023-02-15T02:49:41;11.93;;;7.50;;
35074;SDS011;21260;34.984;32.490;2023-02-15T02:55:36;9.33;;;6.03;;
35074;SDS011;21260;34.984;32.490;2023-02-15T03:01:06;9.83;;;6.63;;
35074;SDS011;21260;34.984;32.490;2023-02-15T03:03:56;12.77;;;7.07;;
35074;SDS011;21260;34.984;32.490;2023-02-15T03:06:35;14.13;;;8.40;;
35074;SDS011;21260;34.984;32.490;2023-02-15T03:12:17;7.83;;;5.50;;
35074;SDS011;21260;34.984;32.490;2023-02-15T03:15:24;13.37;;;6.30;;
35074;SDS011;21260;34.984;32.490;2023-02-15T03:17:48;11.40;;;5.57;;
35074;SDS011;21260;34.984;32.490;2023-02-15T03:20:29;8.07;;;5.40;;
35074;SDS011;21260;34.984;32.490;2023-02-15T03:23:03;12.97;;;8.47;;
35074;SDS011;21260;34.984;32.490;2023-02-15T03:25:40;17.60;;;8.80;;
35074;SDS011;21260;34.984;32.490;2023-02-15T03:28:11;12.37;;;7.10;;
35074;SDS011;21260;34.984;32.490;2023-02-15T03:30:44;11.20;;;6.30;;
35074;SDS011;21260;34.984;32.490;2023-02-15T03:33:17;9.03;;;5.30;;
35074;SDS011;21260;34.984;32.490;2023-02-15T03:36:02;8.03;;;5.67;;
35074;SDS011;21260;34.984;32.490;2023-02-15T03:41:34;10.50;;;5.70;;
35074;SDS011;21260;34.984;32.490;2023-02-15T03:44:25;10.60;;;5.20;;
35074;SDS011;21260;34.984;32.490;2023-02-15T03:53:05;10.53;;;6.37;;
35074;SDS011;21260;34.984;32.490;2023-02-15T03:55:37;15.83;;;7.57;;
35074;SDS011;21260;34.984;32.490;2023-02-15T03:58:03;17.57;;;8.03;;
35074;SDS011;21260;34.984;32.490;2023-02-15T04:04:32;17.37;;;8.23;;
35074;SDS011;21260;34.984;32.490;2023-02-15T04:07:07;14.27;;;9.00;;
35074;SDS011;21260;34.984;32.490;2023-02-15T04:09:34;13.97;;;7.50;;
35074;SDS011;21260;34.984;32.490;2023-02-15T04:12:19;14.20;;;7.50;;
35074;SDS011;21260;34.984;32.490;2023-02-15T04:14:46;9.57;;;5.90;;
35074;SDS011;21260;34.984;32.490;2023-02-15T04:17:31;11.07;;;6.23;;
35074;SDS011;21260;34.984;32.490;2023-02-15T04:19:57;8.00;;;5.40;;
35074;SDS011;21260;34.984;32.490;2023-02-15T04:22:42;11.93;;;5.07;;
35074;SDS011;21260;34.984;32.490;2023-02-15T04:25:26;9.00;;;3.80;;
35074;SDS011;21260;34.984;32.490;2023-02-15T04:27:53;5.53;;;3.63;;
35074;SDS011;21260;34.984;32.490;2023-02-15T04:30:21;4.90;;;3.57;;
35074;SDS011;21260;34.984;32.490;2023-02-15T04:32:50;6.43;;;3.77;;
35074;SDS011;21260;34.984;32.490;2023-02-15T04:35:17;6.10;;;4.20;;
35074;SDS011;21260;34.984;32.490;2023-02-15T04:37:43;15.07;;;8.23;;
35074;SDS011;21260;34.984;32.490;2023-02-15T04:40:11;36.13;;;17.60;;
35074;SDS011;21260;34.984;32.490;2023-02-15T04:42:40;38.77;;;19.20;;
35074;SDS011;21260;34.984;32.490;2023-02-15T04:45:06;21.57;;;9.00;;
35074;SDS011;21260;34.984;32.490;2023-02-15T04:47:33;6.53;;;4.72;;
35074;SDS011;21260;34.984;32.490;2023-02-15T04:49:59;5.13;;;3.83;;
35074;SDS011;21260;34.984;32.490;2023-02-15T04:52:26;5.97;;;3.47;;
35074;SDS011;21260;34.984;32.490;2023-02-15T04:54:52;5.87;;;3.70;;
35074;SDS011;21260;34.984;32.490;2023-02-15T04:57:18;6.40;;;3.90;;
35074;SDS011;21260;34.984;32.490;2023-02-15T04:59:44;6.20;;;3.90;;
35074;SDS011;21260;34.984;32.490;2023-02-15T05:02:10;5.07;;;3.83;;
35074;SDS011;21260;34.984;32.490;2023-02-15T05:04:37;5.27;;;3.63;;
35074;SDS011;21260;34.984;32.490;2023-02-15T05:07:04;5.43;;;4.20;;
35074;SDS011;21260;34.984;32.490;2023-02-15T05:09:30;6.13;;;3.80;;
35074;SDS011;21260;34.984;32.490;2023-02-15T05:11:56;7.38;;;4.40;;
35074;SDS011;21260;34.984;32.490;2023-02-15T05:14:22;6.17;;;3.90;;
35074;SDS011;21260;34.984;32.490;2023-02-15T05:16:49;6.73;;;3.90;;
35074;SDS011;21260;34.984;32.490;2023-02-15T05:19:15;5.23;;;3.77;;
35074;SDS011;21260;34.984;32.490;2023-02-15T05:21:41;6.13;;;4.00;;
35074;SDS011;21260;34.984;32.490;2023-02-15T05:24:07;7.93;;;4.40;;
35074;SDS011;21260;34.984;32.490;2023-02-15T05:26:52;9.13;;;4.80;;
35074;SDS011;21260;34.984;32.490;2023-02-15T05:29:36;5.50;;;4.40;;
35074;SDS011;21260;34.984;32.490;2023-02-15T05:32:03;7.60;;;4.60;;
35074;SDS011;21260;34.984;32.490;2023-02-15T05:34:29;6.17;;;4.10;;
35074;SDS011;21260;34.984;32.490;2023-02-15T05:36:56;5.53;;;3.87;;
35074;SDS011;21260;34.984;32.490;2023-02-15T05:39:22;5.77;;;3.93;;
35074;SDS011;21260;34.984;32.490;2023-02-15T05:41:48;5.73;;;3.73;;
35074;SDS011;21260;34.984;32.490;2023-02-15T05:44:14;6.70;;;4.33;;
35074;SDS011;21260;34.984;32.490;2023-02-15T05:46:41;6.37;;;4.20;;
35074;SDS011;21260;34.984;32.490;2023-02-15T05:49:07;7.70;;;3.70;;
35074;SDS011;21260;34.984;32.490;2023-02-15T05:51:36;6.60;;;3.80;;
35074;SDS011;21260;34.984;32.490;2023-02-15T05:54:03;4.93;;;3.63;;
35074;SDS011;21260;34.984;32.490;2023-02-15T05:56:30;6.87;;;4.13;;
35074;SDS011;21260;34.984;32.490;2023-02-15T05:58:56;8.00;;;3.83;;
35074;SDS011;21260;34.984;32.490;2023-02-15T06:01:22;5.77;;;3.80;;
35074;SDS011;21260;34.984;32.490;2023-02-15T06:03:48;7.10;;;4.17;;
35074;SDS011;21260;34.984;32.490;2023-02-15T06:06:15;6.97;;;3.50;;
35074;SDS011;21260;34.984;32.490;2023-02-15T06:08:41;5.63;;;3.37;;
35074;SDS011;21260;34.984;32.490;2023-02-15T06:11:08;5.30;;;3.80;;
35074;SDS011;21260;34.984;32.490;2023-02-15T06:13:38;6.73;;;3.40;;
35074;SDS011;21260;34.984;32.490;2023-02-15T06:16:05;5.53;;;3.87;;
35074;SDS011;21260;34.984;32.490;2023-02-15T06:18:32;7.07;;;3.80;;
35074;SDS011;21260;34.984;32.490;2023-02-15T06:20:59;5.27;;;3.60;;
35074;SDS011;21260;34.984;32.490;2023-02-15T06:23:28;4.73;;;3.50;;
35074;SDS011;21260;34.984;32.490;2023-02-15T06:25:54;6.33;;;2.93;;
35074;SDS011;21260;34.984;32.490;2023-02-15T06:28:22;5.43;;;3.60;;
35074;SDS011;21260;34.984;32.490;2023-02-15T06:30:50;3.87;;;2.93;;
35074;SDS011;21260;34.984;32.490;2023-02-15T06:33:17;5.53;;;3.40;;
35074;SDS011;21260;34.984;32.490;2023-02-15T06:35:44;6.20;;;3.33;;
35074;SDS011;21260;34.984;32.490;2023-02-15T06:38:11;4.43;;;3.07;;
35074;SDS011;21260;34.984;32.490;2023-02-15T06:40:37;7.67;;;3.50;;
35074;SDS011;21260;34.984;32.490;2023-02-15T06:43:03;4.33;;;3.43;;
35074;SDS011;21260;34.984;32.490;2023-02-15T06:45:30;4.93;;;3.17;;
35074;SDS011;21260;34.984;32.490;2023-02-15T06:47:56;4.43;;;2.80;;
35074;SDS011;21260;34.984;32.490;2023-02-15T06:50:23;4.07;;;2.67;;
35074;SDS011;21260;34.984;32.490;2023-02-15T06:52:49;4.40;;;3.43;;
35074;SDS011;21260;34.984;32.490;2023-02-15T06:55:22;4.70;;;3.07;;
35074;SDS011;21260;34.984;32.490;2023-02-15T06:57:48;5.37;;;3.00;;
35074;SDS011;21260;34.984;32.490;2023-02-15T07:00:14;5.00;;;3.30;;
35074;SDS011;21260;34.984;32.490;2023-02-15T07:02:42;5.47;;;3.27;;
35074;SDS011;21260;34.984;32.490;2023-02-15T07:05:09;4.40;;;3.03;;
35074;SDS011;21260;34.984;32.490;2023-02-15T07:07:36;3.80;;;2.77;;
35074;SDS011;21260;34.984;32.490;2023-02-15T07:10:02;4.27;;;3.07;;
35074;SDS011;21260;34.984;32.490;2023-02-15T07:12:29;4.73;;;2.90;;
35074;SDS011;21260;34.984;32.490;2023-02-15T07:15:17;9.00;;;3.37;;
35074;SDS011;21260;34.984;32.490;2023-02-15T07:17:46;3.27;;;2.87;;
35074;SDS011;21260;34.984;32.490;2023-02-15T07:20:14;5.97;;;2.93;;
35074;SDS011;21260;34.984;32.490;2023-02-15T07:22:47;3.77;;;2.73;;
35074;SDS011;21260;34.984;32.490;2023-02-15T07:25:14;3.80;;;2.70;;
35074;SDS011;21260;34.984;32.490;2023-02-15T07:27:41;4.10;;;2.77;;
35074;SDS011;21260;34.984;32.490;2023-02-15T07:30:09;4.60;;;2.87;;
35074;SDS011;21260;34.984;32.490;2023-02-15T07:32:39;4.33;;;2.97;;
35074;SDS011;21260;34.984;32.490;2023-02-15T07:35:26;4.67;;;3.00;;
35074;SDS011;21260;34.984;32.490;2023-02-15T07:37:52;4.87;;;3.00;;
35074;SDS011;21260;34.984;32.490;2023-02-15T07:40:20;4.10;;;2.80;;
35074;SDS011;21260;34.984;32.490;2023-02-15T07:42:48;4.27;;;3.10;;
35074;SDS011;21260;34.984;32.490;2023-02-15T07:45:18;5.23;;;2.87;;
35074;SDS011;21260;34.984;32.490;2023-02-15T07:47:44;5.10;;;2.60;;
35074;SDS011;21260;34.984;32.490;2023-02-15T07:50:10;4.20;;;2.80;;
35074;SDS011;21260;34.984;32.490;2023-02-15T07:52:37;3.53;;;2.80;;
35074;SDS011;21260;34.984;32.490;2023-02-15T07:55:03;3.83;;;2.53;;
35074;SDS011;21260;34.984;32.490;2023-02-15T07:57:30;3.07;;;2.40;;
35074;SDS011;21260;34.984;32.490;2023-02-15T07:59:57;8.63;;;3.00;;
35074;SDS011;21260;34.984;32.490;2023-02-15T08:02:23;3.27;;;2.60;;
35074;SDS011;21260;34.984;32.490;2023-02-15T08:04:49;7.57;;;2.80;;
35074;SDS011;21260;34.984;32.490;2023-02-15T08:07:16;3.63;;;2.23;;
35074;SDS011;21260;34.984;32.490;2023-02-15T08:09:42;4.23;;;2.60;;
35074;SDS011;21260;34.984;32.490;2023-02-15T08:12:08;4.47;;;2.60;;
35074;SDS011;21260;34.984;32.490;2023-02-15T08:14:34;3.80;;;2.50;;
35074;SDS011;21260;34.984;32.490;2023-02-15T08:17:01;5.97;;;2.73;;
35074;SDS011;21260;34.984;32.490;2023-02-15T08:19:30;3.40;;;2.80;;
35074;SDS011;21260;34.984;32.490;2023-02-15T08:22:03;3.70;;;2.63;;
35074;SDS011;21260;34.984;32.490;2023-02-15T08:24:33;6.07;;;2.77;;
35074;SDS011;21260;34.984;32.490;2023-02-15T08:27:05;5.10;;;2.60;;
35074;SDS011;21260;34.984;32.490;2023-02-15T08:29:34;3.50;;;2.50;;
35074;SDS011;21260;34.984;32.490;2023-02-15T08:32:03;3.30;;;2.60;;
35074;SDS011;21260;34.984;32.490;2023-02-15T08:34:35;4.63;;;2.83;;
35074;SDS011;21260;34.984;32.490;2023-02-15T08:37:04;4.57;;;2.97;;
35074;SDS011;21260;34.984;32.490;2023-02-15T08:39:31;4.73;;;3.00;;
35074;SDS011;21260;34.984;32.490;2023-02-15T08:41:57;6.83;;;3.03;;
35074;SDS011;21260;34.984;32.490;2023-02-15T08:44:24;4.33;;;3.07;;
35074;SDS011;21260;34.984;32.490;2023-02-15T08:46:50;5.23;;;3.30;;
35074;SDS011;21260;34.984;32.490;2023-02-15T08:49:17;4.60;;;2.90;;
35074;SDS011;21260;34.984;32.490;2023-02-15T08:51:47;4.53;;;2.70;;
35074;SDS011;21260;34.984;32.490;2023-02-15T08:54:15;3.43;;;2.43;;
35074;SDS011;21260;34.984;32.490;2023-02-15T08:56:45;3.60;;;2.67;;
35074;SDS011;21260;34.984;32.490;2023-02-15T08:59:16;3.93;;;2.77;;
35074;SDS011;21260;34.984;32.490;2023-02-15T09:01:45;4.93;;;2.60;;
35074;SDS011;21260;34.984;32.490;2023-02-15T09:04:14;3.87;;;2.40;;
35074;SDS011;21260;34.984;32.490;2023-02-15T09:06:41;3.73;;;2.53;;
35074;SDS011;21260;34.984;32.490;2023-02-15T09:09:10;5.23;;;2.57;;
35074;SDS011;21260;34.984;32.490;2023-02-15T09:11:38;5.00;;;2.50;;
35074;SDS011;21260;34.984;32.490;2023-02-15T09:14:09;4.57;;;2.40;;
35074;SDS011;21260;34.984;32.490;2023-02-15T09:16:42;3.93;;;2.40;;
35074;SDS011;21260;34.984;32.490;2023-02-15T09:19:13;4.03;;;2.40;;
35074;SDS011;21260;34.984;32.490;2023-02-15T09:21:45;4.13;;;2.27;;
35074;SDS011;21260;34.984;32.490;2023-02-15T09:24:12;3.80;;;2.10;;
35074;SDS011;21260;34.984;32.490;2023-02-15T09:26:42;5.40;;;2.37;;
35074;SDS011;21260;34.984;32.490;2023-02-15T09:29:12;3.33;;;2.20;;
35074;SDS011;21260;34.984;32.490;2023-02-15T09:31:41;4.40;;;2.10;;
35074;SDS011;21260;34.984;32.490;2023-02-15T09:34:11;2.83;;;2.00;;
35074;SDS011;21260;34.984;32.490;2023-02-15T09:36:40;3.43;;;2.20;;
35074;SDS011;21260;34.984;32.490;2023-02-15T09:39:08;2.60;;;2.07;;
35074;SDS011;21260;34.984;32.490;2023-02-15T09:47:27;4.60;;;2.53;;
35074;SDS011;21260;34.984;32.490;2023-02-15T09:50:49;4.37;;;2.33;;
35074;SDS011;21260;34.984;32.490;2023-02-15T09:57:35;3.50;;;1.93;;
35074;SDS011;21260;34.984;32.490;2023-02-15T10:03:19;3.63;;;2.13;;
35074;SDS011;21260;34.984;32.490;2023-02-15T10:06:04;3.87;;;1.90;;
35074;SDS011;21260;34.984;32.490;2023-02-15T10:21:04;6.03;;;2.17;;
35074;SDS011;21260;34.984;32.490;2023-02-15T10:26:55;2.57;;;1.80;;
35074;SDS011;21260;34.984;32.490;2023-02-15T10:29:38;4.77;;;2.20;;
35074;SDS011;21260;34.984;32.490;2023-02-15T10:49:05;3.20;;;2.00;;
35074;SDS011;21260;34.984;32.490;2023-02-15T10:57:58;2.83;;;2.00;;
35074;SDS011;21260;34.984;32.490;2023-02-15T11:00:47;2.77;;;2.00;;
35074;SDS011;21260;34.984;32.490;2023-02-15T11:07:08;2.50;;;1.80;;
35074;SDS011;21260;34.984;32.490;2023-02-15T11:09:51;4.83;;;2.00;;
35074;SDS011;21260;34.984;32.490;2023-02-15T11:12:51;5.17;;;1.97;;
35074;SDS011;21260;34.984;32.490;2023-02-15T11:18:26;3.43;;;2.30;;
35074;SDS011;21260;34.984;32.490;2023-02-15T11:21:22;4.37;;;2.17;;
35074;SDS011;21260;34.984;32.490;2023-02-15T11:24:14;3.60;;;1.90;;
35074;SDS011;21260;34.984;32.490;2023-02-15T11:27:00;5.53;;;2.10;;
35074;SDS011;21260;34.984;32.490;2023-02-15T11:29:45;2.80;;;2.13;;
35074;SDS011;21260;34.984;32.490;2023-02-15T11:32:31;3.27;;;2.10;;
35074;SDS011;21260;34.984;32.490;2023-02-15T11:38:22;2.60;;;1.80;;
35074;SDS011;21260;34.984;32.490;2023-02-15T11:40:56;2.73;;;2.10;;
35074;SDS011;21260;34.984;32.490;2023-02-15T11:43:39;3.23;;;2.20;;
35074;SDS011;21260;34.984;32.490;2023-02-15T11:46:13;3.37;;;2.23;;
35074;SDS011;21260;34.984;32.490;2023-02-15T11:48:40;2.90;;;1.83;;
35074;SDS011;21260;34.984;32.490;2023-02-15T11:51:08;3.03;;;2.17;;
35074;SDS011;21260;34.984;32.490;2023-02-15T11:53:41;2.20;;;1.70;;
35074;SDS011;21260;34.984;32.490;2023-02-15T11:56:17;7.67;;;2.10;;
35074;SDS011;21260;34.984;32.490;2023-02-15T11:58:53;5.43;;;1.90;;
35074;SDS011;21260;34.984;32.490;2023-02-15T12:04:06;3.43;;;2.10;;
35074;SDS011;21260;34.984;32.490;2023-02-15T12:07:20;3.43;;;2.10;;
35074;SDS011;21260;34.984;32.490;2023-02-15T12:09:59;4.30;;;2.00;;
35074;SDS011;21260;34.984;32.490;2023-02-15T12:12:37;4.17;;;2.20;;
35074;SDS011;21260;34.984;32.490;2023-02-15T12:15:05;3.00;;;2.10;;
35074;SDS011;21260;34.984;32.490;2023-02-15T12:22:50;3.57;;;2.13;;
35074;SDS011;21260;34.984;32.490;2023-02-15T12:25:41;3.57;;;2.40;;
35074;SDS011;21260;34.984;32.490;2023-02-15T12:31:01;3.40;;;1.93;;
35074;SDS011;21260;34.984;32.490;2023-02-15T12:33:45;4.23;;;1.93;;
35074;SDS011;21260;34.984;32.490;2023-02-15T12:36:21;3.40;;;2.17;;
35074;SDS011;21260;34.984;32.490;2023-02-15T12:39:03;2.57;;;2.00;;
35074;SDS011;21260;34.984;32.490;2023-02-15T12:46:59;5.67;;;2.27;;
35074;SDS011;21260;34.984;32.490;2023-02-15T12:49:41;2.60;;;2.20;;
35074;SDS011;21260;34.984;32.490;2023-02-15T12:54:45;9.03;;;2.30;;
35074;SDS011;21260;34.984;32.490;2023-02-15T12:57:22;4.87;;;2.90;;
35074;SDS011;21260;34.984;32.490;2023-02-15T12:59:58;5.23;;;2.30;;
35074;SDS011;21260;34.984;32.490;2023-02-15T13:02:51;3.10;;;2.10;;
35074;SDS011;21260;34.984;32.490;2023-02-15T13:05:23;3.13;;;2.37;;
35074;SDS011;21260;34.984;32.490;2023-02-15T13:14:15;3.43;;;2.10;;
35074;SDS011;21260;34.984;32.490;2023-02-15T13:16:47;4.70;;;2.33;;
35074;SDS011;21260;34.984;32.490;2023-02-15T13:19:19;4.07;;;2.17;;
35074;SDS011;21260;34.984;32.490;2023-02-15T13:21:53;5.70;;;1.90;;
35074;SDS011;21260;34.984;32.490;2023-02-15T13:24:27;3.70;;;2.00;;
35074;SDS011;21260;34.984;32.490;2023-02-15T13:27:18;4.37;;;2.20;;
35074;SDS011;21260;34.984;32.490;2023-02-15T13:29:51;6.43;;;2.20;;
35074;SDS011;21260;34.984;32.490;2023-02-15T13:32:33;4.17;;;2.20;;
35074;SDS011;21260;34.984;32.490;2023-02-15T13:35:09;3.87;;;2.07;;
35074;SDS011;21260;34.984;32.490;2023-02-15T13:40:18;2.57;;;2.17;;
35074;SDS011;21260;34.984;32.490;2023-02-15T13:46:29;2.60;;;1.80;;
35074;SDS011;21260;34.984;32.490;2023-02-15T13:49:23;4.87;;;2.37;;
35074;SDS011;21260;34.984;32.490;2023-02-15T13:52:24;3.23;;;2.00;;
35074;SDS011;21260;34.984;32.490;2023-02-15T14:03:21;3.30;;;2.20;;
35074;SDS011;21260;34.984;32.490;2023-02-15T14:15:23;3.90;;;2.03;;
35074;SDS011;21260;34.984;32.490;2023-02-15T14:23:56;4.00;;;2.33;;
35074;SDS011;21260;34.984;32.490;2023-02-15T14:26:47;4.30;;;2.63;;
35074;SDS011;21260;34.984;32.490;2023-02-15T14:29:48;4.47;;;2.60;;
35074;SDS011;21260;34.984;32.490;2023-02-15T14:35:17;4.57;;;2.50;;
35074;SDS011;21260;34.984;32.490;2023-02-15T14:38:10;5.13;;;2.60;;
35074;SDS011;21260;34.984;32.490;2023-02-15T14:46:52;5.37;;;3.00;;
35074;SDS011;21260;34.984;32.490;2023-02-15T14:49:46;4.53;;;2.67;;
35074;SDS011;21260;34.984;32.490;2023-02-15T14:52:13;3.83;;;2.20;;
35074;SDS011;21260;34.984;32.490;2023-02-15T15:02:15;5.47;;;2.47;;
35074;SDS011;21260;34.984;32.490;2023-02-15T15:07:51;3.97;;;2.30;;
35074;SDS011;21260;34.984;32.490;2023-02-15T15:20:55;4.73;;;2.73;;
35074;SDS011;21260;34.984;32.490;2023-02-15T15:37:30;4.23;;;2.87;;
35074;SDS011;21260;34.984;32.490;2023-02-15T15:40:29;5.67;;;2.93;;
35074;SDS011;21260;34.984;32.490;2023-02-15T15:43:34;6.70;;;4.30;;
35074;SDS011;21260;34.984;32.490;2023-02-15T15:49:28;6.53;;;4.30;;
35074;SDS011;21260;34.984;32.490;2023-02-15T15:52:02;9.20;;;5.63;;
35074;SDS011;21260;34.984;32.490;2023-02-15T15:54:40;14.13;;;7.53;;
35074;SDS011;21260;34.984;32.490;2023-02-15T15:57:14;12.47;;;7.30;;
35074;SDS011;21260;34.984;32.490;2023-02-15T15:59:55;11.17;;;7.70;;
35074;SDS011;21260;34.984;32.490;2023-02-15T16:02:25;14.83;;;7.73;;
35074;SDS011;21260;34.984;32.490;2023-02-15T16:04:53;15.73;;;7.10;;
35074;SDS011;21260;34.984;32.490;2023-02-15T16:07:30;9.87;;;6.10;;
35074;SDS011;21260;34.984;32.490;2023-02-15T16:09:58;10.23;;;5.57;;
35074;SDS011;21260;34.984;32.490;2023-02-15T16:12:35;12.20;;;7.27;;
35074;SDS011;21260;34.984;32.490;2023-02-15T16:15:13;14.80;;;7.27;;
35074;SDS011;21260;34.984;32.490;2023-02-15T16:17:52;13.77;;;7.07;;
35074;SDS011;21260;34.984;32.490;2023-02-15T16:20:24;14.03;;;7.47;;
35074;SDS011;21260;34.984;32.490;2023-02-15T16:29:23;16.57;;;7.97;;
35074;SDS011;21260;34.984;32.490;2023-02-15T16:31:58;11.57;;;5.20;;
35074;SDS011;21260;34.984;32.490;2023-02-15T16:34:32;10.77;;;4.70;;
35074;SDS011;21260;34.984;32.490;2023-02-15T16:39:41;8.40;;;4.37;;
35074;SDS011;21260;34.984;32.490;2023-02-15T16:42:10;9.50;;;4.27;;
35074;SDS011;21260;34.984;32.490;2023-02-15T16:44:40;6.13;;;4.33;;
35074;SDS011;21260;34.984;32.490;2023-02-15T16:47:25;6.87;;;4.37;;
35074;SDS011;21260;34.984;32.490;2023-02-15T16:49:56;6.53;;;4.03;;
35074;SDS011;21260;34.984;32.490;2023-02-15T16:52:27;7.50;;;4.67;;
35074;SDS011;21260;34.984;32.490;2023-02-15T16:54:56;7.03;;;4.40;;
35074;SDS011;21260;34.984;32.490;2023-02-15T16:57:27;8.87;;;4.63;;
35074;SDS011;21260;34.984;32.490;2023-02-15T17:00:04;6.87;;;4.50;;
35074;SDS011;21260;34.984;32.490;2023-02-15T17:02:42;8.47;;;4.53;;
35074;SDS011;21260;34.984;32.490;2023-02-15T17:05:31;7.67;;;4.73;;
35074;SDS011;21260;34.984;32.490;2023-02-15T17:08:17;6.80;;;4.50;;
35074;SDS011;21260;34.984;32.490;2023-02-15T17:13:25;8.30;;;4.73;;
35074;SDS011;21260;34.984;32.490;2023-02-15T17:18:46;7.33;;;4.00;;
35074;SDS011;21260;34.984;32.490;2023-02-15T17:21:13;8.17;;;4.57;;
35074;SDS011;21260;34.984;32.490;2023-02-15T17:23:46;7.47;;;4.47;;
35074;SDS011;21260;34.984;32.490;2023-02-15T17:26:26;7.57;;;4.67;;
35074;SDS011;21260;34.984;32.490;2023-02-15T17:29:02;9.77;;;4.73;;
35074;SDS011;21260;34.984;32.490;2023-02-15T17:32:01;8.07;;;4.83;;
35074;SDS011;21260;34.984;32.490;2023-02-15T17:37:40;8.67;;;5.07;;
35074;SDS011;21260;34.984;32.490;2023-02-15T17:42:49;11.27;;;5.23;;
35074;SDS011;21260;34.984;32.490;2023-02-15T17:45:17;8.33;;;4.70;;
35074;SDS011;21260;34.984;32.490;2023-02-15T17:47:44;8.60;;;4.87;;
35074;SDS011;21260;34.984;32.490;2023-02-15T17:50:20;9.27;;;5.13;;
35074;SDS011;21260;34.984;32.490;2023-02-15T17:52:50;7.40;;;5.47;;
35074;SDS011;21260;34.984;32.490;2023-02-15T17:55:19;6.43;;;4.23;;
35074;SDS011;21260;34.984;32.490;2023-02-15T17:58:00;11.47;;;5.17;;
35074;SDS011;21260;34.984;32.490;2023-02-15T18:00:30;7.50;;;4.10;;
35074;SDS011;21260;34.984;32.490;2023-02-15T18:03:17;8.30;;;4.90;;
35074;SDS011;21260;34.984;32.490;2023-02-15T18:06:02;6.70;;;4.10;;
35074;SDS011;21260;34.984;32.490;2023-02-15T18:08:47;8.63;;;4.53;;
35074;SDS011;21260;34.984;32.490;2023-02-15T18:11:32;6.57;;;4.13;;
35074;SDS011;21260;34.984;32.490;2023-02-15T18:14:02;8.80;;;3.90;;
35074;SDS011;21260;34.984;32.490;2023-02-15T18:16:36;7.60;;;3.80;;
35074;SDS011;21260;34.984;32.490;2023-02-15T18:19:15;7.03;;;3.83;;
35074;SDS011;21260;34.984;32.490;2023-02-15T18:21:46;6.13;;;3.73;;
35074;SDS011;21260;34.984;32.490;2023-02-15T18:24:23;8.33;;;3.80;;
35074;SDS011;21260;34.984;32.490;2023-02-15T18:26:52;5.83;;;3.40;;
35074;SDS011;21260;34.984;32.490;2023-02-15T18:29:19;4.90;;;3.60;;
35074;SDS011;21260;34.984;32.490;2023-02-15T18:31:46;5.63;;;3.43;;
35074;SDS011;21260;34.984;32.490;2023-02-15T18:34:39;6.67;;;3.70;;
35074;SDS011;21260;34.984;32.490;2023-02-15T18:37:11;9.47;;;3.93;;
35074;SDS011;21260;34.984;32.490;2023-02-15T18:39:45;6.20;;;3.67;;
35074;SDS011;21260;34.984;32.490;2023-02-15T18:42:25;7.37;;;3.40;;
35074;SDS011;21260;34.984;32.490;2023-02-15T18:47:45;5.60;;;3.40;;
35074;SDS011;21260;34.984;32.490;2023-02-15T18:50:13;7.77;;;3.67;;
35074;SDS011;21260;34.984;32.490;2023-02-15T18:52:42;6.13;;;3.70;;
35074;SDS011;21260;34.984;32.490;2023-02-15T18:55:15;10.03;;;3.83;;